createdAt,value
2019-03-23T00:01:47.809Z,52.34
2019-03-23T00:04:17.370Z,52.34
2019-03-23T00:06:47.047Z,52.36
2019-03-23T00:09:16.693Z,52.41
2019-03-23T00:11:46.300Z,52.44
2019-03-23T00:14:15.778Z,52.45
2019-03-23T00:16:45.156Z,52.47
2019-03-23T00:19:14.656Z,52.53
2019-03-23T00:21:45.210Z,52.55
2019-03-23T00:24:14.661Z,52.57
2019-03-23T00:26:44.091Z,52.61
2019-03-23T00:29:13.580Z,52.60
2019-03-23T00:31:43.293Z,52.64
2019-03-23T00:34:12.837Z,52.67
2019-03-23T00:36:42.330Z,52.70
2019-03-23T00:39:11.822Z,52.70
2019-03-23T00:41:41.405Z,52.72
2019-03-23T00:44:10.919Z,52.77
2019-03-23T00:46:40.330Z,52.78
2019-03-23T00:49:09.800Z,52.82
2019-03-23T00:51:39.292Z,52.84
2019-03-23T00:54:08.721Z,52.86
2019-03-23T00:56:38.323Z,52.88
2019-03-23T00:59:07.823Z,52.90
2019-03-23T01:01:37.318Z,52.92
2019-03-23T01:04:06.847Z,52.96
2019-03-23T01:06:36.383Z,52.99
2019-03-23T01:09:07.659Z,53.00
2019-03-23T01:11:37.160Z,53.01
2019-03-23T01:14:06.724Z,53.05
2019-03-23T01:16:36.225Z,53.08
2019-03-23T01:19:05.787Z,53.08
2019-03-23T01:21:35.392Z,53.12
2019-03-23T01:24:05.057Z,53.14
2019-03-23T01:26:34.482Z,53.17
2019-03-23T01:29:05.028Z,53.20
2019-03-23T01:31:34.772Z,53.26
2019-03-23T01:34:04.333Z,53.29
2019-03-23T01:36:33.800Z,53.33
2019-03-23T01:39:04.440Z,53.37
2019-03-23T01:41:34.071Z,53.41
2019-03-23T01:44:03.602Z,53.46
2019-03-23T01:46:33.024Z,53.49
2019-03-23T01:49:02.526Z,53.54
2019-03-23T01:51:32.041Z,53.56
2019-03-23T01:54:01.466Z,53.59
2019-03-23T01:56:30.954Z,53.61
2019-03-23T01:59:00.420Z,53.68
2019-03-23T02:01:31.207Z,53.72
2019-03-23T02:04:00.708Z,53.76
2019-03-23T02:06:30.134Z,53.79
2019-03-23T02:08:59.710Z,53.83
2019-03-23T02:11:29.404Z,53.89
2019-03-23T02:13:58.898Z,53.96
2019-03-23T02:16:28.438Z,53.98
2019-03-23T02:18:57.865Z,54.04
2019-03-23T02:21:27.524Z,54.08
2019-03-23T02:23:57.016Z,54.13
2019-03-23T02:26:26.586Z,54.17
2019-03-23T02:28:56.078Z,54.20
2019-03-23T02:31:25.541Z,54.24
2019-03-23T02:33:55.049Z,54.28
2019-03-23T02:36:24.563Z,54.34
2019-03-23T02:38:54.015Z,54.36
2019-03-23T02:41:23.511Z,54.41
2019-03-23T02:43:54.673Z,54.45
2019-03-23T02:46:24.207Z,54.49
2019-03-23T02:48:53.634Z,54.54
2019-03-23T02:51:23.066Z,54.57
2019-03-23T02:53:52.559Z,54.59
2019-03-23T02:56:21.986Z,54.61
2019-03-23T02:58:52.518Z,54.64
2019-03-23T03:01:22.212Z,54.66
2019-03-23T03:03:51.632Z,54.69
2019-03-23T03:06:21.202Z,54.74
2019-03-23T03:08:50.663Z,54.78
2019-03-23T03:11:20.370Z,54.79
2019-03-23T03:13:49.879Z,54.82
2019-03-23T03:16:19.374Z,54.85
2019-03-23T03:18:48.878Z,54.84
2019-03-23T03:21:18.420Z,54.85
2019-03-23T03:23:47.916Z,54.87
2019-03-23T03:26:17.355Z,54.91
2019-03-23T03:28:47.644Z,54.96
2019-03-23T03:31:17.266Z,54.98
2019-03-23T03:33:46.783Z,55.02
2019-03-23T03:36:16.214Z,55.07
2019-03-23T03:38:45.682Z,55.11
2019-03-23T03:41:15.176Z,55.16
2019-03-23T03:43:44.626Z,55.18
2019-03-23T03:46:14.044Z,55.18
2019-03-23T03:48:43.618Z,55.22
2019-03-23T03:51:13.052Z,55.23
2019-03-23T03:53:42.486Z,55.24
2019-03-23T03:56:12.041Z,55.24
2019-03-23T03:58:41.482Z,55.28
2019-03-23T04:01:10.911Z,55.28
2019-03-23T04:03:40.418Z,55.30
2019-03-23T04:06:09.919Z,55.33
2019-03-23T04:08:39.412Z,55.38
2019-03-23T04:11:08.908Z,55.42
2019-03-23T04:13:38.331Z,55.44
2019-03-23T04:16:08.107Z,55.49
2019-03-23T04:18:37.596Z,55.53
2019-03-23T04:21:08.055Z,55.57
2019-03-23T04:23:37.487Z,55.62
2019-03-23T04:26:07.088Z,55.67
2019-03-23T04:28:36.516Z,55.70
2019-03-23T04:31:06.067Z,55.71
2019-03-23T04:33:37.244Z,55.73
2019-03-23T04:36:06.812Z,55.77
2019-03-23T04:38:38.048Z,55.80
2019-03-23T04:41:07.478Z,55.84
2019-03-23T04:43:36.980Z,55.90
2019-03-23T04:46:06.573Z,55.94
2019-03-23T04:48:36.015Z,55.98
2019-03-23T04:51:05.519Z,56.06
2019-03-23T04:53:34.987Z,56.08
2019-03-23T04:56:04.685Z,56.13
2019-03-23T04:58:34.344Z,56.13
2019-03-23T05:01:04.467Z,56.15
2019-03-23T05:03:33.954Z,56.15
2019-03-23T05:06:03.495Z,56.17
2019-03-23T05:08:33.816Z,56.20
2019-03-23T05:11:03.372Z,56.27
2019-03-23T05:13:32.831Z,56.27
2019-03-23T05:16:02.405Z,56.28
2019-03-23T05:18:32.047Z,56.26
2019-03-23T05:21:12.533Z,56.26
2019-03-23T05:23:43.054Z,56.26
2019-03-23T05:26:12.824Z,56.27
2019-03-23T05:28:42.560Z,56.29
2019-03-23T05:31:12.499Z,56.28
2019-03-23T05:33:42.069Z,56.24
2019-03-23T05:36:11.585Z,56.20
2019-03-23T05:38:44.529Z,56.18
2019-03-23T05:41:13.654Z,56.10
2019-03-23T05:43:43.157Z,56.05
2019-03-23T05:46:12.661Z,55.97
2019-03-23T05:48:42.221Z,55.90
2019-03-23T05:51:11.714Z,55.85
2019-03-23T05:53:41.180Z,55.79
2019-03-23T05:56:10.603Z,55.73
2019-03-23T05:58:40.030Z,55.68
2019-03-23T06:01:09.609Z,55.64
2019-03-23T06:03:39.053Z,55.58
2019-03-23T06:06:08.554Z,55.52
2019-03-23T06:08:38.129Z,55.48
2019-03-23T06:11:07.675Z,55.42
2019-03-23T06:13:37.306Z,55.33
2019-03-23T06:16:06.885Z,55.24
2019-03-23T06:18:36.467Z,55.18
2019-03-23T06:21:07.027Z,55.08
2019-03-23T06:23:36.759Z,54.99
2019-03-23T06:26:06.485Z,54.85
2019-03-23T06:28:36.083Z,54.69
2019-03-23T06:31:05.642Z,54.54
2019-03-23T06:33:35.211Z,54.39
2019-03-23T06:36:04.964Z,54.27
2019-03-23T06:38:34.483Z,54.10
2019-03-23T06:41:03.985Z,53.95
2019-03-23T06:43:33.524Z,53.82
2019-03-23T06:46:03.040Z,53.64
2019-03-23T06:48:32.651Z,53.53
2019-03-23T06:51:03.309Z,53.34
2019-03-23T06:53:33.057Z,53.19
2019-03-23T06:56:02.561Z,53.04
2019-03-23T06:58:32.039Z,52.89
2019-03-23T07:01:01.603Z,52.78
2019-03-23T07:03:31.066Z,52.69
2019-03-23T07:06:00.505Z,52.53
2019-03-23T07:08:32.092Z,52.40
2019-03-23T07:11:01.342Z,52.30
2019-03-23T07:13:30.988Z,52.17
2019-03-23T07:16:01.466Z,52.08
2019-03-23T07:18:31.070Z,51.97
2019-03-23T07:21:00.583Z,51.85
2019-03-23T07:23:29.999Z,51.79
2019-03-23T07:25:59.561Z,51.70
2019-03-23T07:28:28.994Z,51.59
2019-03-23T07:30:58.425Z,51.47
2019-03-23T07:33:27.880Z,51.38
2019-03-23T07:35:57.451Z,51.25
2019-03-23T07:38:26.881Z,51.15
2019-03-23T07:40:56.358Z,51.05
2019-03-23T07:43:25.805Z,50.99
2019-03-23T07:45:55.234Z,50.89
2019-03-23T07:48:24.795Z,50.78
2019-03-23T07:50:54.221Z,50.67
2019-03-23T07:53:23.710Z,50.60
2019-03-23T07:55:53.281Z,50.53
2019-03-23T07:58:22.944Z,50.46
2019-03-23T08:00:52.527Z,50.36
2019-03-23T08:03:23.100Z,50.29
2019-03-23T08:05:52.672Z,50.16
2019-03-23T08:08:22.251Z,50.10
2019-03-23T08:10:51.763Z,50.04
2019-03-23T08:13:21.305Z,49.98
2019-03-23T08:15:50.843Z,49.95
2019-03-23T08:18:20.362Z,49.89
2019-03-23T08:20:49.872Z,49.88
2019-03-23T08:23:19.457Z,49.78
2019-03-23T08:25:48.939Z,49.70
2019-03-23T08:28:18.367Z,49.63
2019-03-23T08:30:47.873Z,49.57
2019-03-23T08:33:23.439Z,49.49
2019-03-23T08:35:52.869Z,49.38
2019-03-23T08:38:22.450Z,49.28
2019-03-23T08:40:52.093Z,49.22
2019-03-23T08:43:21.797Z,49.13
2019-03-23T08:45:51.296Z,49.05
2019-03-23T08:48:20.911Z,48.98
2019-03-23T08:50:50.487Z,48.88
2019-03-23T08:53:19.963Z,48.79
2019-03-23T08:55:49.400Z,48.69
2019-03-23T08:58:28.804Z,48.60
2019-03-23T09:00:59.162Z,48.51
2019-03-23T09:03:28.886Z,48.38
2019-03-23T09:05:58.505Z,48.26
2019-03-23T09:08:28.158Z,48.14
2019-03-23T09:10:57.668Z,48.02
2019-03-23T09:13:27.185Z,47.93
2019-03-23T09:15:56.688Z,47.82
2019-03-23T09:18:26.210Z,47.72
2019-03-23T09:20:55.670Z,47.62
2019-03-23T09:23:25.344Z,47.52
2019-03-23T09:25:54.782Z,47.37
2019-03-23T09:28:24.253Z,47.27
2019-03-23T09:30:53.825Z,47.17
2019-03-23T09:33:23.552Z,47.05
2019-03-23T09:35:53.030Z,46.93
2019-03-23T09:38:22.541Z,46.81
2019-03-23T09:40:52.007Z,46.66
2019-03-23T09:43:22.650Z,46.57
2019-03-23T09:45:52.147Z,46.43
2019-03-23T09:48:21.646Z,46.35
2019-03-23T09:50:52.168Z,46.24
2019-03-23T09:53:22.829Z,46.16
2019-03-23T09:55:52.259Z,46.09
2019-03-23T09:58:21.794Z,46.00
2019-03-23T10:00:51.241Z,45.88
2019-03-23T10:03:20.831Z,45.75
2019-03-23T10:05:50.337Z,45.64
2019-03-23T10:08:19.798Z,45.54
2019-03-23T10:10:50.806Z,45.44
2019-03-23T10:13:20.309Z,45.31
2019-03-23T10:15:49.744Z,45.24
2019-03-23T10:18:19.178Z,45.10
2019-03-23T10:20:48.819Z,45.02
2019-03-23T10:23:18.293Z,44.93
2019-03-23T10:25:47.755Z,44.86
2019-03-23T10:28:17.334Z,44.77
2019-03-23T10:30:46.795Z,44.65
2019-03-23T10:33:16.242Z,44.56
2019-03-23T10:35:45.759Z,44.46
2019-03-23T10:38:16.169Z,44.37
2019-03-23T10:40:45.598Z,44.28
2019-03-23T10:43:15.325Z,44.19
2019-03-23T10:45:44.927Z,44.08
2019-03-23T10:48:14.422Z,43.98
2019-03-23T10:50:43.990Z,43.87
2019-03-23T10:53:22.771Z,43.78
2019-03-23T10:55:44.920Z,43.65
2019-03-23T10:58:14.416Z,43.54
2019-03-23T11:00:44.043Z,43.45
2019-03-23T11:03:13.686Z,43.37
2019-03-23T11:05:43.188Z,43.23
2019-03-23T11:08:12.714Z,43.16
2019-03-23T11:10:42.356Z,43.06
2019-03-23T11:13:12.639Z,42.94
2019-03-23T11:15:43.644Z,42.84
2019-03-23T11:18:13.148Z,42.74
2019-03-23T11:20:42.655Z,42.64
2019-03-23T11:23:12.234Z,42.54
2019-03-23T11:25:41.642Z,42.44
2019-03-23T11:28:11.149Z,42.37
2019-03-23T11:30:40.725Z,42.32
2019-03-23T11:33:10.273Z,42.23
2019-03-23T11:35:39.778Z,42.14
2019-03-23T11:38:09.202Z,42.09
2019-03-23T11:40:38.674Z,42.01
2019-03-23T11:43:08.250Z,41.91
2019-03-23T11:45:37.889Z,41.82
2019-03-23T11:48:07.506Z,41.75
2019-03-23T11:50:36.937Z,41.64
2019-03-23T11:53:06.511Z,41.56
2019-03-23T11:55:36.093Z,41.49
2019-03-23T11:58:05.805Z,41.38
2019-03-23T12:00:37.013Z,41.32
2019-03-23T12:03:06.583Z,41.23
2019-03-23T12:05:36.139Z,41.14
2019-03-23T12:08:05.752Z,41.09
2019-03-23T12:10:35.195Z,41.03
2019-03-23T12:13:04.768Z,40.97
2019-03-23T12:15:34.656Z,40.90
2019-03-23T12:18:06.070Z,40.83
2019-03-23T12:20:35.673Z,40.76
2019-03-23T12:23:05.356Z,40.66
2019-03-23T12:25:34.874Z,40.63
2019-03-23T12:28:04.579Z,40.54
2019-03-23T12:30:34.076Z,40.46
2019-03-23T12:33:03.587Z,40.41
2019-03-23T12:35:33.021Z,40.33
2019-03-23T12:38:02.447Z,40.27
2019-03-23T12:40:32.014Z,40.21
2019-03-23T12:43:01.714Z,40.11
2019-03-23T12:45:31.216Z,40.02
2019-03-23T12:48:01.715Z,39.94
2019-03-23T12:50:31.311Z,39.87
2019-03-23T12:53:00.757Z,39.82
2019-03-23T12:55:31.425Z,39.75
2019-03-23T12:58:00.959Z,39.68
2019-03-23T13:00:30.528Z,39.60
2019-03-23T13:02:59.968Z,39.53
2019-03-23T13:05:29.474Z,39.48
2019-03-23T13:07:58.985Z,39.42
2019-03-23T13:10:28.550Z,39.37
2019-03-23T13:12:58.485Z,39.28
2019-03-23T13:15:28.018Z,39.23
2019-03-23T13:17:57.441Z,39.15
2019-03-23T13:20:27.010Z,39.10
2019-03-23T13:22:56.683Z,39.03
2019-03-23T13:25:26.188Z,38.97
2019-03-23T13:27:55.641Z,38.89
2019-03-23T13:30:26.089Z,38.85
2019-03-23T13:32:55.732Z,38.77
2019-03-23T13:35:25.236Z,38.70
2019-03-23T13:37:54.778Z,38.66
2019-03-23T13:40:24.185Z,38.62
2019-03-23T13:42:53.816Z,38.55
2019-03-23T13:45:23.389Z,38.50
2019-03-23T13:47:54.835Z,38.42
2019-03-23T13:50:29.274Z,38.37
2019-03-23T13:52:59.056Z,38.32
2019-03-23T13:55:33.921Z,38.28
2019-03-23T13:58:13.908Z,38.23
2019-03-23T14:00:43.470Z,38.14
2019-03-23T14:03:13.275Z,38.09
2019-03-23T14:05:42.796Z,38.07
2019-03-23T14:08:13.391Z,38.03
2019-03-23T14:10:42.989Z,38.00
2019-03-23T14:13:16.891Z,37.96
2019-03-23T14:15:46.387Z,37.89
2019-03-23T14:18:17.439Z,37.84
2019-03-23T14:20:47.070Z,37.79
2019-03-23T14:23:16.659Z,37.75
2019-03-23T14:25:46.176Z,37.71
2019-03-23T14:28:15.657Z,37.67
2019-03-23T14:30:45.230Z,37.62
2019-03-23T14:33:14.806Z,37.57
2019-03-23T14:35:44.350Z,37.55
2019-03-23T14:38:13.888Z,37.47
2019-03-23T14:40:43.315Z,37.40
2019-03-23T14:43:12.748Z,37.37
2019-03-23T14:45:42.312Z,37.28
2019-03-23T14:48:11.864Z,37.26
2019-03-23T14:50:42.694Z,37.20
2019-03-23T14:53:13.893Z,37.17
2019-03-23T14:55:43.494Z,37.13
2019-03-23T14:58:12.987Z,37.05
2019-03-23T15:00:42.556Z,36.96
2019-03-23T15:03:12.372Z,36.85
2019-03-23T15:05:42.785Z,36.77
2019-03-23T15:08:12.276Z,36.68
2019-03-23T15:10:41.732Z,36.57
2019-03-23T15:13:11.437Z,36.44
2019-03-23T15:15:40.915Z,36.32
2019-03-23T15:18:10.454Z,36.21
2019-03-23T15:20:39.961Z,36.08
2019-03-23T15:23:09.383Z,35.97
2019-03-23T15:25:39.587Z,35.89
2019-03-23T15:28:09.149Z,35.76
2019-03-23T15:30:38.688Z,35.67
2019-03-23T15:33:08.356Z,35.61
2019-03-23T15:35:37.847Z,35.53
2019-03-23T15:38:07.448Z,35.45
2019-03-23T15:40:36.950Z,35.36
2019-03-23T15:43:06.459Z,35.28
2019-03-23T15:45:35.959Z,35.19
2019-03-23T15:48:05.518Z,35.12
2019-03-23T15:50:35.051Z,35.04
2019-03-23T15:53:04.735Z,34.97
2019-03-23T15:55:34.145Z,34.91
2019-03-23T15:58:03.755Z,34.89
2019-03-23T16:00:33.380Z,34.84
2019-03-23T16:03:03.015Z,34.85
2019-03-23T16:05:32.513Z,34.82
2019-03-23T16:08:02.087Z,34.82
2019-03-23T16:10:31.660Z,34.80
2019-03-23T16:13:01.190Z,34.78
2019-03-23T16:15:30.809Z,34.77
2019-03-23T16:18:01.634Z,34.78
2019-03-23T16:20:32.445Z,34.77
2019-03-23T16:23:01.948Z,34.79
2019-03-23T16:25:31.438Z,34.77
2019-03-23T16:28:01.004Z,34.78
2019-03-23T16:30:32.458Z,34.78
2019-03-23T16:33:03.493Z,34.77
2019-03-23T16:35:33.026Z,34.77
2019-03-23T16:38:02.518Z,34.78
2019-03-23T16:40:32.317Z,34.80
2019-03-23T16:43:01.751Z,34.81
2019-03-23T16:45:31.359Z,34.81
2019-03-23T16:48:00.968Z,34.85
2019-03-23T16:50:30.537Z,34.85
2019-03-23T16:53:01.206Z,34.87
2019-03-23T16:55:30.778Z,34.89
2019-03-23T16:58:00.298Z,34.92
2019-03-23T17:00:38.944Z,34.93
2019-03-23T17:03:08.613Z,34.95
2019-03-23T17:05:38.166Z,34.97
2019-03-23T17:08:07.966Z,34.97
2019-03-23T17:10:38.873Z,34.99
2019-03-23T17:13:08.343Z,35.04
2019-03-23T17:15:38.888Z,35.05
2019-03-23T17:18:08.466Z,35.07
2019-03-23T17:20:37.985Z,35.07
2019-03-23T17:23:07.622Z,35.07
2019-03-23T17:25:37.804Z,35.10
2019-03-23T17:28:07.435Z,35.10
2019-03-23T17:30:36.952Z,35.16
2019-03-23T17:33:08.796Z,35.17
2019-03-23T17:35:37.803Z,35.18
2019-03-23T17:38:07.420Z,35.21
2019-03-23T17:40:37.004Z,35.22
2019-03-23T17:43:06.759Z,35.26
2019-03-23T17:45:36.449Z,35.29
2019-03-23T17:48:06.075Z,35.31
2019-03-23T17:50:35.718Z,35.35
2019-03-23T17:53:05.403Z,35.40
2019-03-23T17:55:35.143Z,35.45
2019-03-23T17:58:04.788Z,35.48
2019-03-23T18:00:34.610Z,35.54
2019-03-23T18:03:04.257Z,35.60
2019-03-23T18:05:35.586Z,35.66
2019-03-23T18:08:08.622Z,35.74
2019-03-23T18:10:38.262Z,35.78
2019-03-23T18:13:16.476Z,35.85
2019-03-23T18:15:40.380Z,35.90
2019-03-23T18:18:10.053Z,35.97
2019-03-23T18:20:39.564Z,36.02
2019-03-23T18:23:09.111Z,36.12
2019-03-23T18:25:38.615Z,36.18
2019-03-23T18:28:08.206Z,36.25
2019-03-23T18:30:40.048Z,36.33
2019-03-23T18:33:10.146Z,36.39
2019-03-23T18:35:39.751Z,36.48
2019-03-23T18:38:10.441Z,36.58
2019-03-23T18:40:40.087Z,36.65
2019-03-23T18:43:09.799Z,36.75
2019-03-23T18:45:39.361Z,36.86
2019-03-23T18:48:09.016Z,36.95
2019-03-23T18:50:38.680Z,37.04
2019-03-23T18:53:08.584Z,37.12
2019-03-23T18:55:38.424Z,37.19
2019-03-23T18:58:08.211Z,37.28
2019-03-23T19:00:41.868Z,37.34
2019-03-23T19:03:11.675Z,37.41
2019-03-23T19:05:41.255Z,37.52
2019-03-23T19:08:11.994Z,37.61
2019-03-23T19:10:41.595Z,37.71
2019-03-23T19:13:13.487Z,37.79
2019-03-23T19:15:43.153Z,37.88
2019-03-23T19:18:12.729Z,37.99
2019-03-23T19:20:43.711Z,38.09
2019-03-23T19:23:13.296Z,38.22
2019-03-23T19:25:42.970Z,38.31
2019-03-23T19:28:15.627Z,38.41
2019-03-23T19:30:46.880Z,38.49
2019-03-23T19:33:16.754Z,38.60
2019-03-23T19:35:47.803Z,38.73
2019-03-23T19:38:20.386Z,38.80
2019-03-23T19:40:50.046Z,38.91
2019-03-23T19:43:19.534Z,38.97
2019-03-23T19:45:49.143Z,39.08
2019-03-23T19:48:18.678Z,39.18
2019-03-23T19:50:48.288Z,39.30
2019-03-23T19:53:18.031Z,39.39
2019-03-23T19:55:47.638Z,39.48
2019-03-23T19:58:17.292Z,39.59
2019-03-23T20:00:46.728Z,39.72
2019-03-23T20:03:19.333Z,39.82
2019-03-23T20:05:49.053Z,39.96
2019-03-23T20:08:18.620Z,40.08
2019-03-23T20:10:48.453Z,40.20
2019-03-23T20:13:18.217Z,40.32
2019-03-23T20:15:47.959Z,40.47
2019-03-23T20:18:20.585Z,40.59
2019-03-23T20:20:50.155Z,40.69
2019-03-23T20:23:21.349Z,40.83
2019-03-23T20:25:51.010Z,40.97
2019-03-23T20:28:20.551Z,41.10
2019-03-23T20:30:51.562Z,41.24
2019-03-23T20:33:21.199Z,41.37
2019-03-23T20:35:50.895Z,41.52
2019-03-23T20:38:20.395Z,41.65
2019-03-23T20:40:49.899Z,41.79
2019-03-23T20:43:19.535Z,41.91
2019-03-23T20:45:50.307Z,42.04
2019-03-23T20:48:20.479Z,42.19
2019-03-23T20:50:50.054Z,42.34
2019-03-23T20:53:22.850Z,42.47
2019-03-23T20:55:52.422Z,42.58
2019-03-23T20:58:21.920Z,42.71
2019-03-23T21:00:51.454Z,42.83
2019-03-23T21:03:21.015Z,42.96
2019-03-23T21:05:50.521Z,43.10
2019-03-23T21:08:19.982Z,43.22
2019-03-23T21:10:49.600Z,43.32
2019-03-23T21:13:19.147Z,43.44
2019-03-23T21:15:48.684Z,43.56
2019-03-23T21:18:18.189Z,43.67
2019-03-23T21:20:47.781Z,43.79
2019-03-23T21:23:17.390Z,43.91
2019-03-23T21:25:47.167Z,44.03
2019-03-23T21:28:19.177Z,44.16
2019-03-23T21:30:48.764Z,44.29
2019-03-23T21:33:18.512Z,44.41
2019-03-23T21:35:47.956Z,44.49
2019-03-23T21:38:17.558Z,44.62
2019-03-23T21:40:47.179Z,44.72
2019-03-23T21:43:16.683Z,44.84
2019-03-23T21:45:46.183Z,44.95
2019-03-23T21:48:15.764Z,45.08
2019-03-23T21:50:47.739Z,45.17
2019-03-23T21:53:17.897Z,45.27
2019-03-23T21:55:48.122Z,45.39
2019-03-23T21:58:17.623Z,45.49
2019-03-23T22:00:47.687Z,45.62
2019-03-23T22:03:17.701Z,45.72
2019-03-23T22:05:47.288Z,45.80
2019-03-23T22:08:16.857Z,45.89
2019-03-23T22:10:46.365Z,45.99
2019-03-23T22:13:16.144Z,46.09
2019-03-23T22:15:45.798Z,46.18
2019-03-23T22:18:15.348Z,46.28
2019-03-23T22:20:44.915Z,46.35
2019-03-23T22:23:14.583Z,46.45
2019-03-23T22:25:44.171Z,46.55
2019-03-23T22:28:13.613Z,46.64
2019-03-23T22:30:43.119Z,46.73
2019-03-23T22:33:12.689Z,46.83
2019-03-23T22:35:42.108Z,46.93
2019-03-23T22:38:11.538Z,47.02
2019-03-23T22:40:41.082Z,47.11
2019-03-23T22:43:10.653Z,47.19
2019-03-23T22:45:40.129Z,47.30
2019-03-23T22:48:09.565Z,47.42
2019-03-23T22:50:38.997Z,47.48
2019-03-23T22:53:08.644Z,47.60
2019-03-23T22:55:38.101Z,47.64
2019-03-23T22:58:07.578Z,47.74
2019-03-23T23:00:41.736Z,47.86
2019-03-23T23:03:11.917Z,47.93
2019-03-23T23:05:41.658Z,48.03
2019-03-23T23:08:11.114Z,48.14
2019-03-23T23:10:40.653Z,48.18
2019-03-23T23:13:10.220Z,48.28
2019-03-23T23:15:39.716Z,48.38
2019-03-23T23:18:09.213Z,48.46
2019-03-23T23:20:38.808Z,48.54
2019-03-23T23:23:08.507Z,48.62
2019-03-23T23:25:38.004Z,48.72
2019-03-23T23:28:07.678Z,48.82
2019-03-23T23:30:37.283Z,48.91
2019-03-23T23:33:07.001Z,49.03
2019-03-23T23:35:36.575Z,49.13
2019-03-23T23:38:06.255Z,49.23
2019-03-23T23:40:35.926Z,49.32
2019-03-23T23:43:05.790Z,49.44
2019-03-23T23:45:35.392Z,49.52
2019-03-23T23:48:05.228Z,49.58
2019-03-23T23:50:34.721Z,49.69
2019-03-23T23:53:04.574Z,49.75
2019-03-23T23:55:34.085Z,49.85
2019-03-23T23:58:03.724Z,49.97
